sensor_id;sensor_type;location;lat;lon;timestamp;pressure;altitude;pressure_sealevel;temperature;humidity
70200;BME280;57587;55.688;37.600;2023-03-16T00:00:00;99106.34;;;4.13;66.08
70200;BME280;57587;55.688;37.600;2023-03-16T00:02:30;99113.44;;;4.31;66.22
70200;BME280;57587;55.688;37.600;2023-03-16T00:04:57;99117.09;;;4.38;66.06
70200;BME280;57587;55.688;37.600;2023-03-16T00:07:24;99115.50;;;4.45;66.06
70200;BME280;57587;55.688;37.600;2023-03-16T00:09:51;99110.19;;;4.45;66.03
70200;BME280;57587;55.688;37.600;2023-03-16T00:12:20;99104.59;;;4.48;65.83
70200;BME280;57587;55.688;37.600;2023-03-16T00:14:48;99096.13;;;4.45;66.06
70200;BME280;57587;55.688;37.600;2023-03-16T00:17:18;99084.06;;;4.50;65.94
70200;BME280;57587;55.688;37.600;2023-03-16T00:19:54;99092.66;;;4.44;66.40
70200;BME280;57587;55.688;37.600;2023-03-16T00:22:28;99080.09;;;4.46;65.95
70200;BME280;57587;55.688;37.600;2023-03-16T00:24:56;99082.88;;;4.45;66.39
70200;BME280;57587;55.688;37.600;2023-03-16T00:27:25;99074.94;;;4.45;66.66
70200;BME280;57587;55.688;37.600;2023-03-16T00:29:52;99092.34;;;4.47;67.22
70200;BME280;57587;55.688;37.600;2023-03-16T00:32:26;99099.91;;;4.42;67.43
70200;BME280;57587;55.688;37.600;2023-03-16T00:34:53;99102.53;;;4.34;68.48
70200;BME280;57587;55.688;37.600;2023-03-16T00:37:21;99095.81;;;4.22;68.92
70200;BME280;57587;55.688;37.600;2023-03-16T00:39:50;99099.28;;;4.22;68.79
70200;BME280;57587;55.688;37.600;2023-03-16T00:42:18;99099.81;;;4.26;68.76
70200;BME280;57587;55.688;37.600;2023-03-16T00:44:46;99095.94;;;4.20;69.14
70200;BME280;57587;55.688;37.600;2023-03-16T00:47:13;99098.78;;;4.19;69.76
70200;BME280;57587;55.688;37.600;2023-03-16T00:49:42;99103.00;;;4.11;69.65
70200;BME280;57587;55.688;37.600;2023-03-16T00:52:11;99096.28;;;3.99;70.23
70200;BME280;57587;55.688;37.600;2023-03-16T00:54:42;99098.78;;;4.01;70.52
70200;BME280;57587;55.688;37.600;2023-03-16T00:57:15;99095.63;;;3.97;70.28
70200;BME280;57587;55.688;37.600;2023-03-16T00:59:45;99083.97;;;3.90;70.52
70200;BME280;57587;55.688;37.600;2023-03-16T01:02:14;99094.13;;;3.95;70.24
70200;BME280;57587;55.688;37.600;2023-03-16T01:04:41;99095.16;;;3.84;70.72
70200;BME280;57587;55.688;37.600;2023-03-16T01:07:12;99093.50;;;3.83;70.42
70200;BME280;57587;55.688;37.600;2023-03-16T01:09:40;99096.47;;;3.80;70.87
70200;BME280;57587;55.688;37.600;2023-03-16T01:12:12;99102.75;;;3.79;70.46
70200;BME280;57587;55.688;37.600;2023-03-16T01:14:39;99102.75;;;3.79;70.38
70200;BME280;57587;55.688;37.600;2023-03-16T01:17:08;99103.66;;;3.69;70.55
70200;BME280;57587;55.688;37.600;2023-03-16T01:19:36;99095.72;;;3.69;70.99
70200;BME280;57587;55.688;37.600;2023-03-16T01:22:05;99106.97;;;3.72;70.08
70200;BME280;57587;55.688;37.600;2023-03-16T01:24:33;99100.72;;;3.73;70.04
70200;BME280;57587;55.688;37.600;2023-03-16T01:27:05;99102.13;;;3.67;70.60
70200;BME280;57587;55.688;37.600;2023-03-16T01:29:34;99099.88;;;3.72;70.49
70200;BME280;57587;55.688;37.600;2023-03-16T01:32:02;99104.94;;;3.65;70.15
70200;BME280;57587;55.688;37.600;2023-03-16T01:34:31;99102.31;;;3.65;70.28
70200;BME280;57587;55.688;37.600;2023-03-16T01:36:59;99104.47;;;3.70;70.33
70200;BME280;57587;55.688;37.600;2023-03-16T01:39:36;99108.50;;;3.56;70.49
70200;BME280;57587;55.688;37.600;2023-03-16T01:42:04;99109.84;;;3.60;70.55
70200;BME280;57587;55.688;37.600;2023-03-16T01:44:53;99104.34;;;3.54;70.44
70200;BME280;57587;55.688;37.600;2023-03-16T01:47:24;99096.69;;;3.68;70.24
70200;BME280;57587;55.688;37.600;2023-03-16T01:49:53;99108.34;;;3.76;70.30
70200;BME280;57587;55.688;37.600;2023-03-16T01:52:28;99111.72;;;3.68;70.13
70200;BME280;57587;55.688;37.600;2023-03-16T01:55:02;99099.28;;;3.60;70.39
70200;BME280;57587;55.688;37.600;2023-03-16T01:57:33;99096.94;;;3.57;70.47
70200;BME280;57587;55.688;37.600;2023-03-16T02:00:12;99100.31;;;3.67;70.59
70200;BME280;57587;55.688;37.600;2023-03-16T02:03:12;99099.41;;;3.77;69.79
70200;BME280;57587;55.688;37.600;2023-03-16T02:06:19;99100.16;;;3.87;69.33
70200;BME280;57587;55.688;37.600;2023-03-16T02:08:54;99093.72;;;3.89;69.48
70200;BME280;57587;55.688;37.600;2023-03-16T02:11:23;99097.28;;;3.98;69.71
70200;BME280;57587;55.688;37.600;2023-03-16T02:14:05;99105.53;;;3.95;69.17
70200;BME280;57587;55.688;37.600;2023-03-16T02:16:33;99107.63;;;4.09;69.20
70200;BME280;57587;55.688;37.600;2023-03-16T02:19:02;99101.56;;;4.17;68.60
70200;BME280;57587;55.688;37.600;2023-03-16T02:24:21;99086.81;;;4.14;68.51
70200;BME280;57587;55.688;37.600;2023-03-16T02:26:54;99095.75;;;4.13;68.50
70200;BME280;57587;55.688;37.600;2023-03-16T02:31:57;99096.34;;;4.07;68.05
70200;BME280;57587;55.688;37.600;2023-03-16T02:34:25;99100.72;;;4.16;67.94
70200;BME280;57587;55.688;37.600;2023-03-16T02:36:54;99106.03;;;4.16;67.86
70200;BME280;57587;55.688;37.600;2023-03-16T02:39:24;99101.94;;;4.22;68.30
70200;BME280;57587;55.688;37.600;2023-03-16T02:41:51;99088.91;;;4.29;68.28
70200;BME280;57587;55.688;37.600;2023-03-16T02:44:25;99078.94;;;4.23;67.61
70200;BME280;57587;55.688;37.600;2023-03-16T02:46:56;99080.66;;;4.32;67.47
70200;BME280;57587;55.688;37.600;2023-03-16T02:49:37;99072.59;;;4.42;67.09
70200;BME280;57587;55.688;37.600;2023-03-16T02:52:05;99074.41;;;4.41;66.82
70200;BME280;57587;55.688;37.600;2023-03-16T02:54:33;99084.91;;;4.51;67.38
70200;BME280;57587;55.688;37.600;2023-03-16T02:57:00;99076.13;;;4.50;67.07
70200;BME280;57587;55.688;37.600;2023-03-16T02:59:28;99068.31;;;4.49;67.00
70200;BME280;57587;55.688;37.600;2023-03-16T03:01:56;99068.00;;;4.52;67.20
70200;BME280;57587;55.688;37.600;2023-03-16T03:04:23;99080.78;;;4.56;66.83
70200;BME280;57587;55.688;37.600;2023-03-16T03:06:51;99081.94;;;4.54;66.76
70200;BME280;57587;55.688;37.600;2023-03-16T03:09:18;99082.44;;;4.57;66.29
70200;BME280;57587;55.688;37.600;2023-03-16T03:11:50;99076.84;;;4.60;66.65
70200;BME280;57587;55.688;37.600;2023-03-16T03:14:17;99084.13;;;4.58;66.60
70200;BME280;57587;55.688;37.600;2023-03-16T03:16:47;99079.47;;;4.60;66.06
70200;BME280;57587;55.688;37.600;2023-03-16T03:19:14;99075.69;;;4.63;66.40
70200;BME280;57587;55.688;37.600;2023-03-16T03:21:41;99083.19;;;4.68;66.15
70200;BME280;57587;55.688;37.600;2023-03-16T03:24:09;99080.53;;;4.68;66.28
70200;BME280;57587;55.688;37.600;2023-03-16T03:26:36;99065.28;;;4.61;65.92
70200;BME280;57587;55.688;37.600;2023-03-16T03:29:08;99068.88;;;4.60;65.76
70200;BME280;57587;55.688;37.600;2023-03-16T03:31:35;99068.06;;;4.60;65.88
70200;BME280;57587;55.688;37.600;2023-03-16T03:34:03;99061.88;;;4.51;66.33
70200;BME280;57587;55.688;37.600;2023-03-16T03:36:34;99048.06;;;4.39;66.59
70200;BME280;57587;55.688;37.600;2023-03-16T03:39:03;99053.66;;;4.28;66.83
70200;BME280;57587;55.688;37.600;2023-03-16T03:41:32;99059.56;;;4.22;67.28
70200;BME280;57587;55.688;37.600;2023-03-16T03:44:03;99050.59;;;4.15;67.41
70200;BME280;57587;55.688;37.600;2023-03-16T03:46:30;99054.22;;;4.14;68.35
70200;BME280;57587;55.688;37.600;2023-03-16T03:48:57;99066.25;;;4.08;68.13
70200;BME280;57587;55.688;37.600;2023-03-16T03:51:33;99056.19;;;4.12;68.04
70200;BME280;57587;55.688;37.600;2023-03-16T03:54:07;99051.16;;;4.01;68.47
70200;BME280;57587;55.688;37.600;2023-03-16T03:56:45;99067.41;;;4.06;68.02
70200;BME280;57587;55.688;37.600;2023-03-16T03:59:15;99065.63;;;4.14;68.67
70200;BME280;57587;55.688;37.600;2023-03-16T04:02:00;99077.59;;;4.19;68.62
70200;BME280;57587;55.688;37.600;2023-03-16T04:04:38;99075.25;;;4.15;68.27
70200;BME280;57587;55.688;37.600;2023-03-16T04:07:07;99077.59;;;4.19;67.91
70200;BME280;57587;55.688;37.600;2023-03-16T04:09:35;99073.94;;;4.20;68.21
70200;BME280;57587;55.688;37.600;2023-03-16T04:12:04;99079.66;;;4.33;67.83
70200;BME280;57587;55.688;37.600;2023-03-16T04:14:33;99074.31;;;4.25;67.77
70200;BME280;57587;55.688;37.600;2023-03-16T04:17:04;99078.50;;;4.35;67.99
70200;BME280;57587;55.688;37.600;2023-03-16T04:19:34;99078.69;;;4.34;67.70
70200;BME280;57587;55.688;37.600;2023-03-16T04:22:03;99072.19;;;4.28;68.53
70200;BME280;57587;55.688;37.600;2023-03-16T04:24:30;99068.34;;;4.23;68.11
70200;BME280;57587;55.688;37.600;2023-03-16T04:27:00;99064.81;;;4.14;68.57
70200;BME280;57587;55.688;37.600;2023-03-16T04:29:28;99072.09;;;4.12;68.93
70200;BME280;57587;55.688;37.600;2023-03-16T04:31:57;99062.41;;;4.03;69.56
70200;BME280;57587;55.688;37.600;2023-03-16T04:34:26;99067.25;;;4.07;69.24
70200;BME280;57587;55.688;37.600;2023-03-16T04:36:57;99072.16;;;4.02;69.67
70200;BME280;57587;55.688;37.600;2023-03-16T04:39:24;99069.16;;;3.97;69.71
70200;BME280;57587;55.688;37.600;2023-03-16T04:41:53;99072.25;;;3.92;69.85
70200;BME280;57587;55.688;37.600;2023-03-16T04:44:23;99078.91;;;3.97;69.74
70200;BME280;57587;55.688;37.600;2023-03-16T04:46:52;99070.50;;;4.01;70.17
70200;BME280;57587;55.688;37.600;2023-03-16T04:49:21;99093.63;;;3.99;70.36
70200;BME280;57587;55.688;37.600;2023-03-16T04:51:48;99097.06;;;3.91;70.09
70200;BME280;57587;55.688;37.600;2023-03-16T04:54:18;99105.84;;;3.92;70.55
70200;BME280;57587;55.688;37.600;2023-03-16T04:56:45;99105.13;;;3.90;70.75
70200;BME280;57587;55.688;37.600;2023-03-16T04:59:36;99099.03;;;3.89;70.51
70200;BME280;57587;55.688;37.600;2023-03-16T05:02:13;99089.88;;;3.84;70.65
70200;BME280;57587;55.688;37.600;2023-03-16T05:04:40;99098.41;;;3.78;71.10
70200;BME280;57587;55.688;37.600;2023-03-16T05:07:10;99105.53;;;3.77;70.55
70200;BME280;57587;55.688;37.600;2023-03-16T05:09:41;99111.66;;;3.78;71.38
70200;BME280;57587;55.688;37.600;2023-03-16T05:12:08;99113.16;;;3.80;71.36
70200;BME280;57587;55.688;37.600;2023-03-16T05:14:36;99120.59;;;3.77;71.42
70200;BME280;57587;55.688;37.600;2023-03-16T05:17:29;99118.94;;;3.76;71.97
70200;BME280;57587;55.688;37.600;2023-03-16T05:19:56;99135.31;;;3.79;72.59
70200;BME280;57587;55.688;37.600;2023-03-16T05:22:24;99124.06;;;3.77;71.87
70200;BME280;57587;55.688;37.600;2023-03-16T05:25:07;99129.22;;;3.79;72.08
70200;BME280;57587;55.688;37.600;2023-03-16T05:27:34;99119.88;;;3.75;71.92
70200;BME280;57587;55.688;37.600;2023-03-16T05:30:04;99112.94;;;3.91;71.91
70200;BME280;57587;55.688;37.600;2023-03-16T05:32:33;99113.47;;;3.95;71.74
70200;BME280;57587;55.688;37.600;2023-03-16T05:35:00;99113.78;;;3.92;71.49
70200;BME280;57587;55.688;37.600;2023-03-16T05:37:30;99099.63;;;4.01;71.46
70200;BME280;57587;55.688;37.600;2023-03-16T05:39:57;99098.94;;;3.99;71.22
70200;BME280;57587;55.688;37.600;2023-03-16T05:42:24;99095.22;;;4.10;70.63
70200;BME280;57587;55.688;37.600;2023-03-16T05:44:58;99096.56;;;4.14;70.07
70200;BME280;57587;55.688;37.600;2023-03-16T05:47:43;99102.69;;;4.14;69.92
70200;BME280;57587;55.688;37.600;2023-03-16T05:50:13;99114.28;;;4.13;69.17
70200;BME280;57587;55.688;37.600;2023-03-16T05:52:44;99113.84;;;4.18;69.50
70200;BME280;57587;55.688;37.600;2023-03-16T05:55:17;99113.72;;;4.28;69.79
70200;BME280;57587;55.688;37.600;2023-03-16T05:57:50;99107.28;;;4.30;68.76
70200;BME280;57587;55.688;37.600;2023-03-16T06:00:18;99116.72;;;4.33;68.94
70200;BME280;57587;55.688;37.600;2023-03-16T06:02:54;99120.59;;;4.38;68.62
70200;BME280;57587;55.688;37.600;2023-03-16T06:05:26;99114.84;;;4.43;68.40
70200;BME280;57587;55.688;37.600;2023-03-16T06:07:54;99114.34;;;4.48;68.79
70200;BME280;57587;55.688;37.600;2023-03-16T06:10:25;99112.91;;;4.53;68.76
70200;BME280;57587;55.688;37.600;2023-03-16T06:12:52;99111.91;;;4.54;67.81
70200;BME280;57587;55.688;37.600;2023-03-16T06:15:20;99119.03;;;4.54;67.71
70200;BME280;57587;55.688;37.600;2023-03-16T06:17:51;99120.06;;;4.35;68.45
70200;BME280;57587;55.688;37.600;2023-03-16T06:20:18;99132.94;;;4.30;68.48
70200;BME280;57587;55.688;37.600;2023-03-16T06:22:46;99137.31;;;4.39;68.79
70200;BME280;57587;55.688;37.600;2023-03-16T06:25:13;99146.31;;;4.46;68.88
70200;BME280;57587;55.688;37.600;2023-03-16T06:27:43;99145.72;;;4.34;68.33
70200;BME280;57587;55.688;37.600;2023-03-16T06:30:15;99142.81;;;4.46;69.51
70200;BME280;57587;55.688;37.600;2023-03-16T06:32:43;99144.91;;;4.60;68.81
70200;BME280;57587;55.688;37.600;2023-03-16T06:35:13;99161.69;;;4.69;68.07
70200;BME280;57587;55.688;37.600;2023-03-16T06:37:46;99159.72;;;4.71;67.78
70200;BME280;57587;55.688;37.600;2023-03-16T06:40:32;99139.53;;;4.78;67.82
70200;BME280;57587;55.688;37.600;2023-03-16T06:42:59;99136.72;;;4.79;67.85
70200;BME280;57587;55.688;37.600;2023-03-16T06:45:28;99140.75;;;4.92;67.25
70200;BME280;57587;55.688;37.600;2023-03-16T06:47:55;99134.00;;;4.97;67.13
70200;BME280;57587;55.688;37.600;2023-03-16T06:50:23;99141.66;;;5.00;66.42
70200;BME280;57587;55.688;37.600;2023-03-16T06:52:50;99139.16;;;4.99;66.59
70200;BME280;57587;55.688;37.600;2023-03-16T06:55:17;99139.34;;;5.05;67.30
70200;BME280;57587;55.688;37.600;2023-03-16T06:57:47;99138.72;;;5.12;66.59
70200;BME280;57587;55.688;37.600;2023-03-16T07:00:14;99133.41;;;5.12;67.13
70200;BME280;57587;55.688;37.600;2023-03-16T07:02:42;99133.09;;;5.15;65.85
70200;BME280;57587;55.688;37.600;2023-03-16T07:05:12;99135.13;;;5.21;66.62
70200;BME280;57587;55.688;37.600;2023-03-16T07:07:40;99129.81;;;5.21;65.81
70200;BME280;57587;55.688;37.600;2023-03-16T07:10:13;99130.63;;;5.29;65.89
70200;BME280;57587;55.688;37.600;2023-03-16T07:12:41;99131.50;;;5.38;64.60
70200;BME280;57587;55.688;37.600;2023-03-16T07:15:09;99136.47;;;5.33;65.44
70200;BME280;57587;55.688;37.600;2023-03-16T07:17:39;99134.28;;;5.28;65.88
70200;BME280;57587;55.688;37.600;2023-03-16T07:20:07;99142.78;;;5.40;66.25
70200;BME280;57587;55.688;37.600;2023-03-16T07:22:38;99148.97;;;5.49;65.76
70200;BME280;57587;55.688;37.600;2023-03-16T07:25:08;99143.50;;;5.59;64.68
70200;BME280;57587;55.688;37.600;2023-03-16T07:27:41;99144.69;;;5.64;64.27
70200;BME280;57587;55.688;37.600;2023-03-16T07:30:11;99140.84;;;5.59;64.79
70200;BME280;57587;55.688;37.600;2023-03-16T07:32:42;99144.31;;;5.51;65.20
70200;BME280;57587;55.688;37.600;2023-03-16T07:35:10;99130.84;;;5.44;65.94
70200;BME280;57587;55.688;37.600;2023-03-16T07:37:38;99132.22;;;5.57;65.39
70200;BME280;57587;55.688;37.600;2023-03-16T07:40:07;99136.88;;;5.63;65.97
70200;BME280;57587;55.688;37.600;2023-03-16T07:42:36;99136.22;;;5.69;64.69
70200;BME280;57587;55.688;37.600;2023-03-16T07:45:08;99125.63;;;5.77;64.80
70200;BME280;57587;55.688;37.600;2023-03-16T07:47:36;99122.47;;;5.82;63.88
70200;BME280;57587;55.688;37.600;2023-03-16T07:50:14;99123.28;;;5.58;64.74
70200;BME280;57587;55.688;37.600;2023-03-16T07:52:44;99126.25;;;5.63;64.55
70200;BME280;57587;55.688;37.600;2023-03-16T07:55:12;99117.16;;;5.73;64.44
70200;BME280;57587;55.688;37.600;2023-03-16T07:57:41;99123.28;;;5.82;64.95
70200;BME280;57587;55.688;37.600;2023-03-16T08:00:09;99118.53;;;5.94;64.17
70200;BME280;57587;55.688;37.600;2023-03-16T08:02:41;99121.69;;;5.97;63.82
70200;BME280;57587;55.688;37.600;2023-03-16T08:05:11;99122.88;;;5.95;63.33
70200;BME280;57587;55.688;37.600;2023-03-16T08:07:42;99116.84;;;5.76;63.64
70200;BME280;57587;55.688;37.600;2023-03-16T08:10:14;99111.34;;;5.78;65.07
70200;BME280;57587;55.688;37.600;2023-03-16T08:13:04;99120.66;;;5.90;65.54
70200;BME280;57587;55.688;37.600;2023-03-16T08:15:33;99129.16;;;5.94;64.25
70200;BME280;57587;55.688;37.600;2023-03-16T08:18:08;99133.59;;;5.77;63.68
70200;BME280;57587;55.688;37.600;2023-03-16T08:20:35;99131.59;;;5.79;64.16
70200;BME280;57587;55.688;37.600;2023-03-16T08:23:03;99125.28;;;5.72;65.06
70200;BME280;57587;55.688;37.600;2023-03-16T08:25:36;99134.91;;;5.81;64.52
70200;BME280;57587;55.688;37.600;2023-03-16T08:28:09;99135.75;;;5.82;65.07
70200;BME280;57587;55.688;37.600;2023-03-16T08:30:43;99135.09;;;5.88;64.53
70200;BME280;57587;55.688;37.600;2023-03-16T08:33:21;99137.91;;;5.86;64.97
70200;BME280;57587;55.688;37.600;2023-03-16T08:35:50;99131.59;;;5.87;64.16
70200;BME280;57587;55.688;37.600;2023-03-16T08:38:18;99137.56;;;5.81;64.95
70200;BME280;57587;55.688;37.600;2023-03-16T08:40:49;99138.91;;;5.77;64.42
70200;BME280;57587;55.688;37.600;2023-03-16T08:43:19;99137.75;;;5.80;64.64
70200;BME280;57587;55.688;37.600;2023-03-16T08:45:47;99144.84;;;5.79;64.38
70200;BME280;57587;55.688;37.600;2023-03-16T08:48:16;99142.38;;;5.77;64.82
70200;BME280;57587;55.688;37.600;2023-03-16T08:50:47;99133.41;;;5.70;65.13
70200;BME280;57587;55.688;37.600;2023-03-16T08:53:14;99139.06;;;5.75;65.36
70200;BME280;57587;55.688;37.600;2023-03-16T08:55:41;99131.41;;;5.72;64.75
70200;BME280;57587;55.688;37.600;2023-03-16T08:58:09;99145.19;;;5.68;65.14
70200;BME280;57587;55.688;37.600;2023-03-16T09:00:38;99150.16;;;5.63;65.14
70200;BME280;57587;55.688;37.600;2023-03-16T09:03:06;99137.19;;;5.60;65.25
70200;BME280;57587;55.688;37.600;2023-03-16T09:05:33;99146.19;;;5.67;65.38
70200;BME280;57587;55.688;37.600;2023-03-16T09:08:00;99141.81;;;5.49;65.48
70200;BME280;57587;55.688;37.600;2023-03-16T09:10:29;99139.03;;;5.59;65.74
70200;BME280;57587;55.688;37.600;2023-03-16T09:12:58;99141.69;;;5.59;65.83
70200;BME280;57587;55.688;37.600;2023-03-16T09:15:25;99132.72;;;5.60;66.74
70200;BME280;57587;55.688;37.600;2023-03-16T09:17:52;99134.56;;;5.68;66.30
70200;BME280;57587;55.688;37.600;2023-03-16T09:20:20;99133.91;;;5.82;66.25
70200;BME280;57587;55.688;37.600;2023-03-16T09:22:54;99135.47;;;5.93;65.77
70200;BME280;57587;55.688;37.600;2023-03-16T09:25:22;99140.78;;;6.01;65.85
70200;BME280;57587;55.688;37.600;2023-03-16T09:27:51;99137.47;;;5.99;64.84
70200;BME280;57587;55.688;37.600;2023-03-16T09:30:19;99141.22;;;5.88;64.78
70200;BME280;57587;55.688;37.600;2023-03-16T09:32:46;99136.41;;;5.84;65.09
70200;BME280;57587;55.688;37.600;2023-03-16T09:35:15;99128.28;;;5.85;65.78
70200;BME280;57587;55.688;37.600;2023-03-16T09:37:42;99133.28;;;5.80;64.99
70200;BME280;57587;55.688;37.600;2023-03-16T09:40:29;99142.22;;;5.79;65.27
70200;BME280;57587;55.688;37.600;2023-03-16T09:48:31;99135.22;;;5.62;65.49
70200;BME280;57587;55.688;37.600;2023-03-16T09:50:59;99138.22;;;5.67;65.87
70200;BME280;57587;55.688;37.600;2023-03-16T09:53:29;99127.13;;;5.80;65.69
70200;BME280;57587;55.688;37.600;2023-03-16T09:56:04;99134.63;;;5.92;64.93
70200;BME280;57587;55.688;37.600;2023-03-16T09:58:32;99132.16;;;5.99;65.55
70200;BME280;57587;55.688;37.600;2023-03-16T10:03:58;99129.34;;;6.09;65.96
70200;BME280;57587;55.688;37.600;2023-03-16T10:06:28;99134.97;;;5.97;65.55
70200;BME280;57587;55.688;37.600;2023-03-16T10:09:06;99140.31;;;6.14;64.57
70200;BME280;57587;55.688;37.600;2023-03-16T10:11:52;99139.28;;;6.15;65.86
70200;BME280;57587;55.688;37.600;2023-03-16T10:17:15;99140.28;;;6.30;64.65
70200;BME280;57587;55.688;37.600;2023-03-16T10:22:22;99142.28;;;6.36;64.71
70200;BME280;57587;55.688;37.600;2023-03-16T10:27:48;99138.63;;;6.54;64.73
70200;BME280;57587;55.688;37.600;2023-03-16T10:30:28;99140.25;;;6.63;64.14
70200;BME280;57587;55.688;37.600;2023-03-16T10:33:24;99141.91;;;6.64;64.15
70200;BME280;57587;55.688;37.600;2023-03-16T10:43:49;99151.28;;;6.99;64.30
70200;BME280;57587;55.688;37.600;2023-03-16T10:46:17;99137.16;;;7.07;63.14
70200;BME280;57587;55.688;37.600;2023-03-16T10:51:47;99144.03;;;7.24;62.31
70200;BME280;57587;55.688;37.600;2023-03-16T10:54:26;99143.41;;;7.22;62.42
70200;BME280;57587;55.688;37.600;2023-03-16T10:56:54;99149.53;;;7.31;62.13
70200;BME280;57587;55.688;37.600;2023-03-16T10:59:33;99150.00;;;7.34;61.60
70200;BME280;57587;55.688;37.600;2023-03-16T11:02:14;99155.00;;;7.37;61.67
70200;BME280;57587;55.688;37.600;2023-03-16T11:04:41;99149.16;;;7.34;61.79
70200;BME280;57587;55.688;37.600;2023-03-16T11:07:18;99150.03;;;7.26;61.80
70200;BME280;57587;55.688;37.600;2023-03-16T11:09:45;99146.69;;;7.32;61.91
70200;BME280;57587;55.688;37.600;2023-03-16T11:12:21;99152.97;;;7.39;62.32
70200;BME280;57587;55.688;37.600;2023-03-16T11:14:50;99150.63;;;7.45;61.74
70200;BME280;57587;55.688;37.600;2023-03-16T11:17:32;99153.44;;;7.43;62.26
70200;BME280;57587;55.688;37.600;2023-03-16T11:20:08;99155.63;;;7.39;62.04
70200;BME280;57587;55.688;37.600;2023-03-16T11:22:38;99151.78;;;7.42;61.62
70200;BME280;57587;55.688;37.600;2023-03-16T11:27:51;99151.97;;;7.41;61.35
70200;BME280;57587;55.688;37.600;2023-03-16T11:30:27;99145.84;;;7.32;61.82
70200;BME280;57587;55.688;37.600;2023-03-16T11:32:55;99148.03;;;7.28;61.71
70200;BME280;57587;55.688;37.600;2023-03-16T11:35:34;99155.19;;;7.28;61.30
70200;BME280;57587;55.688;37.600;2023-03-16T11:38:40;99159.66;;;7.27;61.27
70200;BME280;57587;55.688;37.600;2023-03-16T11:41:14;99160.69;;;7.18;61.07
70200;BME280;57587;55.688;37.600;2023-03-16T11:43:55;99164.03;;;7.12;61.55
70200;BME280;57587;55.688;37.600;2023-03-16T11:46:24;99167.56;;;7.12;62.15
70200;BME280;57587;55.688;37.600;2023-03-16T11:57:07;99182.25;;;6.92;61.72
70200;BME280;57587;55.688;37.600;2023-03-16T12:11:07;99190.06;;;6.77;62.89
70200;BME280;57587;55.688;37.600;2023-03-16T12:19:44;99189.25;;;6.68;63.13
70200;BME280;57587;55.688;37.600;2023-03-16T12:22:19;99186.09;;;6.65;63.16
70200;BME280;57587;55.688;37.600;2023-03-16T12:24:48;99177.81;;;6.60;63.67
70200;BME280;57587;55.688;37.600;2023-03-16T12:27:20;99184.28;;;6.57;64.11
70200;BME280;57587;55.688;37.600;2023-03-16T12:38:12;99191.41;;;6.16;64.67
70200;BME280;57587;55.688;37.600;2023-03-16T12:43:35;99200.69;;;5.95;64.95
70200;BME280;57587;55.688;37.600;2023-03-16T12:46:12;99204.94;;;5.88;65.67
70200;BME280;57587;55.688;37.600;2023-03-16T12:48:52;99207.94;;;5.77;65.52
70200;BME280;57587;55.688;37.600;2023-03-16T12:51:35;99199.59;;;5.72;65.48
70200;BME280;57587;55.688;37.600;2023-03-16T12:54:02;99210.88;;;5.66;66.26
70200;BME280;57587;55.688;37.600;2023-03-16T12:56:33;99211.88;;;5.65;66.37
70200;BME280;57587;55.688;37.600;2023-03-16T12:59:03;99213.34;;;5.59;67.03
70200;BME280;57587;55.688;37.600;2023-03-16T13:01:41;99218.84;;;5.66;67.04
70200;BME280;57587;55.688;37.600;2023-03-16T13:04:20;99220.16;;;5.62;66.63
70200;BME280;57587;55.688;37.600;2023-03-16T13:06:52;99211.84;;;5.57;66.73
70200;BME280;57587;55.688;37.600;2023-03-16T13:09:27;99210.81;;;5.49;67.54
70200;BME280;57587;55.688;37.600;2023-03-16T13:11:57;99210.19;;;5.55;67.84
70200;BME280;57587;55.688;37.600;2023-03-16T13:14:55;99209.47;;;5.45;68.23
70200;BME280;57587;55.688;37.600;2023-03-16T13:17:40;99215.81;;;5.52;68.07
70200;BME280;57587;55.688;37.600;2023-03-16T13:23:07;99215.00;;;5.60;67.97
70200;BME280;57587;55.688;37.600;2023-03-16T13:25:41;99210.88;;;5.66;67.77
70200;BME280;57587;55.688;37.600;2023-03-16T13:28:13;99209.91;;;5.67;67.71
70200;BME280;57587;55.688;37.600;2023-03-16T13:30:47;99208.91;;;5.68;67.73
70200;BME280;57587;55.688;37.600;2023-03-16T13:33:20;99206.59;;;5.73;67.90
70200;BME280;57587;55.688;37.600;2023-03-16T13:35:50;99212.88;;;5.72;67.84
70200;BME280;57587;55.688;37.600;2023-03-16T13:38:21;99216.34;;;5.72;68.18
70200;BME280;57587;55.688;37.600;2023-03-16T13:40:50;99197.97;;;5.71;67.43
70200;BME280;57587;55.688;37.600;2023-03-16T13:43:23;99205.91;;;5.79;67.68
70200;BME280;57587;55.688;37.600;2023-03-16T13:45:50;99208.25;;;5.74;67.89
70200;BME280;57587;55.688;37.600;2023-03-16T13:48:17;99211.56;;;5.76;67.75
70200;BME280;57587;55.688;37.600;2023-03-16T13:50:50;99205.25;;;5.69;68.11
70200;BME280;57587;55.688;37.600;2023-03-16T13:53:27;99206.91;;;5.70;67.79
70200;BME280;57587;55.688;37.600;2023-03-16T13:55:57;99206.25;;;5.68;67.60
70200;BME280;57587;55.688;37.600;2023-03-16T13:58:29;99202.25;;;5.72;68.34
70200;BME280;57587;55.688;37.600;2023-03-16T14:01:03;99203.72;;;5.66;68.52
70200;BME280;57587;55.688;37.600;2023-03-16T14:03:38;99206.06;;;5.69;68.39
70200;BME280;57587;55.688;37.600;2023-03-16T14:06:21;99198.63;;;5.73;67.81
70200;BME280;57587;55.688;37.600;2023-03-16T14:08:50;99212.09;;;5.80;68.08
70200;BME280;57587;55.688;37.600;2023-03-16T14:11:19;99204.94;;;5.80;67.84
70200;BME280;57587;55.688;37.600;2023-03-16T14:13:51;99204.94;;;5.80;67.32
70200;BME280;57587;55.688;37.600;2023-03-16T14:16:24;99202.78;;;5.84;67.13
70200;BME280;57587;55.688;37.600;2023-03-16T14:18:57;99199.13;;;5.85;67.57
70200;BME280;57587;55.688;37.600;2023-03-16T14:21:29;99198.31;;;5.84;67.64
70200;BME280;57587;55.688;37.600;2023-03-16T14:23:59;99203.28;;;5.87;67.57
70200;BME280;57587;55.688;37.600;2023-03-16T14:26:41;99203.28;;;5.87;67.31
70200;BME280;57587;55.688;37.600;2023-03-16T14:29:20;99209.28;;;5.89;67.90
70200;BME280;57587;55.688;37.600;2023-03-16T14:31:50;99208.81;;;5.94;67.40
70200;BME280;57587;55.688;37.600;2023-03-16T14:34:34;99215.31;;;5.99;67.25
70200;BME280;57587;55.688;37.600;2023-03-16T14:37:10;99203.97;;;5.89;67.72